Time;durP1;ratioP1;P1;durP2;ratioP2;P2;SDS_P1;SDS_P2;PMS_P1;PMS_P2;Temp;Humidity;BMP_temperature;BMP_pressure;BME280_temperature;BME280_humidity;BME280_pressure;Samples;Min_cycle;Max_cycle;Signal;HPM_P1;HPM_P2
2023/10/10 00:00:54;;;;;;;11.33;6.57;;;16.20;99.90;;;;;;5075862;28;20044;-66
2023/10/10 00:03:26;;;;;;;13.23;6.60;;;16.20;99.90;;;;;;5075438;28;20048;-66
2023/10/10 00:05:54;;;;;;;10.50;6.80;;;16.10;99.90;;;;;;5074685;28;20057;-67
2023/10/10 00:08:20;;;;;;;13.80;5.80;;;16.10;99.90;;;;;;5076224;28;20075;-66
2023/10/10 00:10:50;;;;;;;10.67;5.87;;;16.10;99.90;;;;;;5074448;28;20040;-66
2023/10/10 00:13:19;;;;;;;8.37;6.00;;;16.10;99.90;;;;;;5075979;28;20078;-66
2023/10/10 00:15:51;;;;;;;11.60;5.73;;;16.10;99.90;;;;;;5075627;28;20084;-66
2023/10/10 00:18:19;;;;;;;9.63;6.27;;;16.10;99.90;;;;;;5075612;28;20048;-66
2023/10/10 00:21:04;;;;;;;11.60;6.90;;;16.10;99.90;;;;;;5075506;28;20052;-66
2023/10/10 00:23:33;;;;;;;8.70;5.63;;;16.10;99.90;;;;;;5075771;28;20041;-66
2023/10/10 00:25:59;;;;;;;9.83;5.97;;;16.10;99.90;;;;;;5074855;28;20460;-66
2023/10/10 00:28:27;;;;;;;11.27;5.97;;;16.10;99.90;;;;;;5075571;28;20060;-66
2023/10/10 00:30:53;;;;;;;10.63;6.33;;;16.10;99.90;;;;;;5075620;28;20083;-67
2023/10/10 00:33:20;;;;;;;12.20;5.77;;;16.10;99.90;;;;;;5074148;28;20086;-66
2023/10/10 00:35:47;;;;;;;15.43;6.40;;;16.10;99.90;;;;;;5075780;28;20044;-66
2023/10/10 00:38:34;;;;;;;9.33;5.73;;;16.10;99.90;;;;;;5075148;28;20109;-66
2023/10/10 00:41:03;;;;;;;7.70;5.53;;;16.10;99.90;;;;;;5073392;28;20056;-66
2023/10/10 00:43:31;;;;;;;7.70;5.40;;;16.10;99.90;;;;;;5075044;28;20084;-66
2023/10/10 00:45:57;;;;;;;9.33;5.37;;;16.10;99.90;;;;;;5075764;28;20111;-66
2023/10/10 00:48:29;;;;;;;11.30;5.90;;;16.10;99.90;;;;;;5074992;28;20049;-66
2023/10/10 00:50:56;;;;;;;10.70;5.70;;;16.10;99.90;;;;;;5074730;28;20493;-66
2023/10/10 00:53:22;;;;;;;8.57;5.03;;;16.10;99.90;;;;;;5074935;28;20496;-66
2023/10/10 00:55:57;;;;;;;12.70;6.00;;;16.10;99.90;;;;;;5074818;28;20048;-66
2023/10/10 00:58:25;;;;;;;10.95;5.53;;;16.10;99.90;;;;;;5075410;28;20417;-66
2023/10/10 01:00:54;;;;;;;10.47;6.10;;;16.10;99.90;;;;;;5074782;28;20051;-66
2023/10/10 01:03:20;;;;;;;10.53;5.70;;;16.10;99.90;;;;;;5074556;28;20499;-66
2023/10/10 01:05:52;;;;;;;10.07;5.57;;;16.10;99.90;;;;;;5074654;28;20051;-66
2023/10/10 01:08:30;;;;;;;11.13;6.00;;;16.10;99.90;;;;;;5073801;28;20418;-66
2023/10/10 01:11:02;;;;;;;8.50;5.60;;;16.10;99.90;;;;;;5072375;28;20048;-66
2023/10/10 01:13:27;;;;;;;10.83;5.70;;;16.10;99.90;;;;;;5074532;28;20045;-66
2023/10/10 01:15:56;;;;;;;7.30;4.97;;;16.00;99.90;;;;;;5074719;28;20098;-66
2023/10/10 01:18:24;;;;;;;8.90;5.27;;;16.10;99.90;;;;;;5073072;28;20052;-66
2023/10/10 01:20:50;;;;;;;11.93;6.07;;;16.00;99.90;;;;;;5074325;28;20045;-66
2023/10/10 01:23:26;;;;;;;7.20;5.30;;;16.00;99.90;;;;;;5073257;28;20051;-66
2023/10/10 01:25:52;;;;;;;9.70;5.83;;;16.00;99.90;;;;;;5074303;28;20048;-67
2023/10/10 01:33:25;;;;;;;11.07;6.97;;;16.00;99.90;;;;;;5074144;28;20135;-66
2023/10/10 01:35:55;;;;;;;12.83;6.77;;;15.90;99.90;;;;;;5074072;28;20048;-66
2023/10/10 01:38:27;;;;;;;8.97;6.57;;;15.90;99.90;;;;;;5074093;28;20048;-66
2023/10/10 01:40:58;;;;;;;7.57;6.20;;;15.80;99.90;;;;;;5074047;28;20056;-66
2023/10/10 01:43:24;;;;;;;9.60;6.23;;;15.80;99.90;;;;;;5073840;28;20044;-66
2023/10/10 01:46:08;;;;;;;13.80;7.10;;;15.80;99.90;;;;;;5073946;28;20404;-66
2023/10/10 01:48:43;;;;;;;11.45;6.55;;;15.80;99.90;;;;;;5073969;28;20114;-66
2023/10/10 01:51:15;;;;;;;17.90;7.55;;;15.80;99.90;;;;;;5073897;28;20052;-66
2023/10/10 01:53:41;;;;;;;12.37;6.87;;;15.70;99.90;;;;;;5073584;28;20044;-66
2023/10/10 01:56:08;;;;;;;10.83;6.30;;;15.70;99.90;;;;;;5073624;28;20511;-66
2023/10/10 01:58:36;;;;;;;10.23;6.87;;;15.70;99.90;;;;;;5073714;28;20127;-66
2023/10/10 02:01:19;;;;;;;11.60;6.70;;;15.70;99.90;;;;;;5073680;28;20045;-66
2023/10/10 02:03:46;;;;;;;13.43;6.80;;;15.70;99.90;;;;;;5072904;28;20123;-68
2023/10/10 02:06:24;;;;;;;11.73;7.27;;;15.70;99.90;;;;;;5072605;28;20459;-67
2023/10/10 02:08:51;;;;;;;14.30;7.80;;;15.70;99.90;;;;;;5073637;28;20102;-66
2023/10/10 02:11:23;;;;;;;12.67;8.03;;;15.60;99.90;;;;;;5073579;28;20048;-66
2023/10/10 02:13:50;;;;;;;10.60;6.03;;;15.70;99.90;;;;;;5073496;28;20481;-66
2023/10/10 02:16:24;;;;;;;10.57;6.57;;;15.70;99.90;;;;;;5073495;28;20045;-66
2023/10/10 02:18:54;;;;;;;10.93;7.10;;;15.70;99.90;;;;;;5073501;28;20049;-66
2023/10/10 02:21:31;;;;;;;13.53;6.80;;;15.70;99.90;;;;;;5073411;28;20127;-66
2023/10/10 02:24:25;;;;;;;13.60;7.60;;;15.70;99.90;;;;;;5073463;28;20493;-66
2023/10/10 02:26:51;;;;;;;13.13;7.37;;;15.70;99.90;;;;;;5073564;28;20056;-66
2023/10/10 02:29:21;;;;;;;14.83;8.07;;;15.70;99.90;;;;;;5073627;28;20186;-66
2023/10/10 02:32:06;;;;;;;13.30;7.90;;;15.70;99.90;;;;;;5074276;28;20049;-66
2023/10/10 02:34:34;;;;;;;14.95;7.60;;;15.70;99.90;;;;;;5072408;28;20060;-66
2023/10/10 02:37:22;;;;;;;15.43;8.40;;;15.70;99.90;;;;;;5073330;28;20193;-66
2023/10/10 02:39:56;;;;;;;16.40;8.30;;;15.70;99.90;;;;;;5072362;28;20040;-66
2023/10/10 02:42:23;;;;;;;12.73;7.43;;;15.70;99.90;;;;;;5073525;28;20052;-66
2023/10/10 02:44:58;;;;;;;14.30;6.90;;;15.70;99.90;;;;;;5073060;28;20047;-66
2023/10/10 02:47:30;;;;;;;13.05;8.20;;;15.70;99.90;;;;;;5073487;28;20532;-66
2023/10/10 02:50:39;;;;;;;14.47;9.10;;;15.70;99.90;;;;;;5088787;28;20045;-66
2023/10/10 02:53:00;;;;;;;14.73;8.53;;;15.70;99.90;;;;;;5072867;28;20397;-66
2023/10/10 02:55:33;;;;;;;17.23;9.43;;;15.70;99.90;;;;;;5072735;28;20563;-66
2023/10/10 02:57:59;;;;;;;15.00;8.93;;;15.80;99.90;;;;;;5073144;28;20052;-66
2023/10/10 03:02:53;;;;;;;21.23;9.23;;;15.70;99.90;;;;;;5073125;28;20503;-66
2023/10/10 03:05:38;;;;;;;17.43;9.27;;;15.80;99.90;;;;;;5073173;28;20049;-67
2023/10/10 03:08:14;;;;;;;12.27;7.83;;;15.80;99.90;;;;;;5073085;28;20052;-66
2023/10/10 03:10:45;;;;;;;13.40;8.13;;;15.80;99.90;;;;;;5073136;28;20092;-66
2023/10/10 03:13:57;;;;;;;14.40;8.17;;;15.80;99.90;;;;;;5073047;28;20045;-66
2023/10/10 03:29:21;;;;;;;17.50;10.20;;;15.80;99.90;;;;;;5072701;28;20057;-66
2023/10/10 03:32:09;;;;;;;15.13;9.23;;;15.80;99.90;;;;;;5076305;28;20052;-66
2023/10/10 03:34:44;;;;;;;19.00;10.37;;;15.80;99.90;;;;;;5076330;28;20072;-66
2023/10/10 03:40:20;;;;;;;14.60;9.57;;;15.80;99.90;;;;;;5076879;28;20052;-66
2023/10/10 05:24:24;;;;;;;24.73;19.30;;;15.60;99.90;;;;;;5073897;28;20484;-66
2023/10/10 05:26:49;;;;;;;30.30;20.87;;;15.50;99.90;;;;;;5074191;28;20059;-66
2023/10/10 05:29:19;;;;;;;30.70;21.53;;;15.50;99.90;;;;;;5073961;28;20049;-66
2023/10/10 05:31:51;;;;;;;28.67;21.47;;;15.50;99.90;;;;;;5074034;28;20091;-66
2023/10/10 05:34:18;;;;;;;38.87;25.97;;;15.50;99.90;;;;;;5056477;28;20037;-66
2023/10/10 05:36:46;;;;;;;38.20;24.23;;;15.50;99.90;;;;;;5073472;28;20489;-66
2023/10/10 05:39:17;;;;;;;35.47;25.67;;;15.50;99.90;;;;;;5074808;28;20044;-66
2023/10/10 05:41:47;;;;;;;31.53;23.10;;;15.50;99.90;;;;;;5074577;28;20091;-66
2023/10/10 05:44:15;;;;;;;33.57;24.47;;;15.50;99.90;;;;;;5073869;28;20036;-66
2023/10/10 05:46:40;;;;;;;43.03;27.33;;;15.50;99.90;;;;;;5073856;28;20084;-66
2023/10/10 05:49:06;;;;;;;35.93;25.93;;;15.50;99.90;;;;;;5073671;28;20086;-66
2023/10/10 05:51:32;;;;;;;33.57;23.40;;;15.50;99.90;;;;;;5073811;28;20060;-67
2023/10/10 05:53:58;;;;;;;39.23;26.37;;;15.50;99.90;;;;;;5073514;28;20477;-66
2023/10/10 05:56:24;;;;;;;33.87;24.83;;;15.60;99.90;;;;;;5072633;28;20087;-66
2023/10/10 05:58:50;;;;;;;36.37;25.37;;;15.50;99.90;;;;;;5073706;28;20036;-66
2023/10/10 06:01:17;;;;;;;36.77;24.73;;;15.50;99.90;;;;;;5073686;28;20049;-66
2023/10/10 06:03:46;;;;;;;33.30;23.90;;;15.50;99.90;;;;;;5072362;28;20045;-66
2023/10/10 06:06:13;;;;;;;36.53;22.83;;;15.60;99.90;;;;;;5074157;28;20047;-66
2023/10/10 06:08:41;;;;;;;33.50;24.37;;;15.50;99.90;;;;;;5073603;28;20127;-66
2023/10/10 06:11:09;;;;;;;36.23;25.87;;;15.60;99.90;;;;;;5073576;28;20048;-66
2023/10/10 06:13:39;;;;;;;38.73;25.20;;;15.50;99.90;;;;;;5074123;28;20045;-68
2023/10/10 06:16:13;;;;;;;34.80;23.90;;;15.50;99.90;;;;;;5074340;28;20374;-66
2023/10/10 06:18:44;;;;;;;36.33;24.95;;;15.60;99.90;;;;;;5073419;28;20106;-66
2023/10/10 06:21:10;;;;;;;28.20;20.60;;;15.60;99.90;;;;;;5073495;28;20052;-66
2023/10/10 06:23:37;;;;;;;34.43;22.80;;;15.60;99.90;;;;;;5073431;28;20385;-68
2023/10/10 06:26:06;;;;;;;31.70;22.37;;;15.60;99.90;;;;;;5072274;28;20041;-66
2023/10/10 06:28:48;;;;;;;30.70;22.23;;;15.70;99.90;;;;;;5073258;28;20053;-66
2023/10/10 06:31:19;;;;;;;34.17;22.37;;;15.70;99.90;;;;;;5073978;28;20052;-66
2023/10/10 06:33:51;;;;;;;26.23;20.63;;;15.70;99.90;;;;;;5073454;28;20132;-66
2023/10/10 06:38:59;;;;;;;26.37;21.83;;;15.80;99.90;;;;;;5073348;28;20049;-66
2023/10/10 06:41:35;;;;;;;26.37;21.27;;;15.80;99.90;;;;;;5073967;28;20123;-66
2023/10/10 06:44:01;;;;;;;33.40;21.43;;;15.80;99.90;;;;;;5072360;28;20037;-66
2023/10/10 06:46:32;;;;;;;26.87;19.70;;;15.80;99.90;;;;;;5072137;28;20040;-66
2023/10/10 06:49:06;;;;;;;32.23;21.77;;;15.90;99.90;;;;;;5073529;28;20049;-66
2023/10/10 06:51:39;;;;;;;26.67;20.13;;;15.90;99.90;;;;;;5072184;28;20040;-66
2023/10/10 06:54:27;;;;;;;27.67;21.40;;;15.90;99.90;;;;;;5073216;28;20052;-66
2023/10/10 06:59:27;;;;;;;25.23;20.67;;;15.90;99.90;;;;;;5073209;28;20052;-66
2023/10/10 07:01:57;;;;;;;30.07;23.57;;;15.90;99.90;;;;;;5073096;28;20180;-66
2023/10/10 07:04:23;;;;;;;33.93;23.43;;;15.90;99.90;;;;;;5073038;28;20040;-67
2023/10/10 07:06:51;;;;;;;30.73;22.97;;;16.00;99.90;;;;;;5075353;28;20113;-68
2023/10/10 07:09:27;;;;;;;32.73;23.47;;;16.00;99.90;;;;;;5076921;28;20059;-67
2023/10/10 07:11:57;;;;;;;33.90;25.20;;;16.00;99.90;;;;;;5076093;28;20044;-67
2023/10/10 07:14:26;;;;;;;28.97;25.23;;;16.10;99.90;;;;;;5076827;28;20048;-67
2023/10/10 07:16:56;;;;;;;34.80;26.77;;;16.10;99.90;;;;;;5076697;28;20108;-67
2023/10/10 07:19:31;;;;;;;38.60;28.20;;;16.10;99.90;;;;;;5076709;28;20052;-68
2023/10/10 07:21:59;;;;;;;41.30;31.15;;;16.20;99.90;;;;;;5075559;28;20076;-68
2023/10/10 07:24:40;;;;;;;42.60;29.87;;;16.20;99.90;;;;;;5076453;28;20121;-68
2023/10/10 07:27:11;;;;;;;38.13;29.90;;;16.30;99.90;;;;;;5076744;28;20117;-68
2023/10/10 07:32:18;;;;;;;39.03;28.60;;;16.30;99.90;;;;;;5076445;28;20124;-68
2023/10/10 07:34:50;;;;;;;42.47;31.53;;;16.40;99.90;;;;;;5076358;28;20080;-67
2023/10/10 07:37:19;;;;;;;42.50;31.30;;;16.50;99.90;;;;;;5075551;28;20053;-68
2023/10/10 07:42:27;;;;;;;41.23;30.33;;;16.70;99.90;;;;;;5076366;28;20060;-68
2023/10/10 07:44:57;;;;;;;42.23;30.57;;;16.80;99.90;;;;;;5076987;28;20047;-68
2023/10/10 07:47:27;;;;;;;40.27;31.43;;;16.90;99.90;;;;;;5076206;28;20140;-68
2023/10/10 07:49:59;;;;;;;44.80;32.27;;;17.00;99.90;;;;;;5076120;28;20033;-68
2023/10/10 07:52:25;;;;;;;36.17;30.57;;;17.00;99.90;;;;;;5075925;28;20123;-68
2023/10/10 07:54:51;;;;;;;43.67;33.07;;;17.00;99.90;;;;;;5076052;28;20115;-66
2023/10/10 07:57:26;;;;;;;46.57;33.53;;;17.10;99.90;;;;;;5076516;28;20106;-66
2023/10/10 07:59:57;;;;;;;38.92;30.23;;;17.20;99.90;;;;;;5075973;28;20463;-67
2023/10/10 08:02:24;;;;;;;41.30;30.87;;;17.30;99.90;;;;;;5076520;28;20048;-67
2023/10/10 08:05:01;;;;;;;42.27;32.20;;;17.40;99.90;;;;;;5075781;28;20047;-68
2023/10/10 08:07:28;;;;;;;36.70;30.87;;;17.40;99.90;;;;;;5076710;28;20124;-67
2023/10/10 08:10:13;;;;;;;38.23;30.30;;;17.50;99.90;;;;;;5075097;28;20124;-68
2023/10/10 08:12:40;;;;;;;38.63;29.52;;;17.50;99.90;;;;;;5075683;28;20048;-66
2023/10/10 08:15:19;;;;;;;39.07;32.23;;;17.50;99.90;;;;;;5074585;28;20060;-66
2023/10/10 08:17:52;;;;;;;42.67;34.03;;;17.60;99.90;;;;;;5076045;28;20040;-66
2023/10/10 08:20:37;;;;;;;37.93;30.63;;;17.60;99.90;;;;;;5075666;28;20066;-66
2023/10/10 08:23:04;;;;;;;46.78;32.17;;;17.60;99.90;;;;;;5075576;28;20105;-67
2023/10/10 08:25:30;;;;;;;38.07;29.77;;;17.70;99.90;;;;;;5074015;28;20079;-66
2023/10/10 08:27:58;;;;;;;42.53;32.30;;;17.70;99.90;;;;;;5075394;28;20055;-66
2023/10/10 08:30:25;;;;;;;39.77;30.30;;;17.70;99.90;;;;;;5075402;28;20060;-66
2023/10/10 08:32:56;;;;;;;39.87;30.47;;;17.70;99.90;;;;;;5075389;28;20044;-67
2023/10/10 08:35:23;;;;;;;39.60;31.80;;;17.60;99.90;;;;;;5075373;28;20182;-66
2023/10/10 08:37:52;;;;;;;41.90;32.90;;;17.60;99.90;;;;;;5075318;28;20049;-66
2023/10/10 08:40:22;;;;;;;38.93;32.10;;;17.60;99.90;;;;;;5075244;28;20044;-67
2023/10/10 08:42:51;;;;;;;38.23;33.17;;;17.60;99.90;;;;;;5075046;28;20056;-66
2023/10/10 08:45:25;;;;;;;40.63;31.50;;;17.50;99.90;;;;;;5075043;28;20047;-67
2023/10/10 08:48:01;;;;;;;42.47;33.37;;;17.50;99.90;;;;;;5074021;28;20052;-66
2023/10/10 08:50:33;;;;;;;46.67;33.77;;;17.60;99.90;;;;;;5075276;28;20044;-67
2023/10/10 08:53:00;;;;;;;46.27;34.67;;;17.60;99.90;;;;;;5074877;28;20052;-67
2023/10/10 08:55:26;;;;;;;41.00;34.20;;;17.60;99.90;;;;;;5075198;28;20112;-67
2023/10/10 08:57:55;;;;;;;45.93;36.20;;;17.60;99.90;;;;;;5075083;28;20051;-67
2023/10/10 09:00:27;;;;;;;44.23;36.07;;;17.70;99.90;;;;;;5074793;28;20051;-67
2023/10/10 09:02:56;;;;;;;46.17;36.00;;;17.70;99.90;;;;;;5075281;28;20384;-67
2023/10/10 09:05:24;;;;;;;46.93;38.63;;;17.70;99.90;;;;;;5073401;28;20047;-67
2023/10/10 09:07:53;;;;;;;47.60;36.87;;;17.70;99.90;;;;;;5075356;28;20123;-68
2023/10/10 09:10:28;;;;;;;47.17;36.73;;;17.80;99.90;;;;;;5074524;28;20049;-67
2023/10/10 09:12:58;;;;;;;48.20;38.27;;;17.90;99.90;;;;;;5075171;28;20049;-68
2023/10/10 09:15:25;;;;;;;46.33;37.87;;;17.90;99.90;;;;;;5074520;28;20041;-68
2023/10/10 09:17:58;;;;;;;47.00;36.17;;;17.90;99.90;;;;;;5074466;28;20458;-68
2023/10/10 09:20:28;;;;;;;48.37;38.57;;;18.00;99.90;;;;;;5074480;28;20040;-67
2023/10/10 09:23:04;;;;;;;47.97;37.47;;;18.00;99.90;;;;;;5074994;28;20483;-67
2023/10/10 09:25:43;;;;;;;46.23;37.43;;;18.10;99.90;;;;;;5074284;28;20052;-67
2023/10/10 09:28:15;;;;;;;45.90;36.47;;;18.10;99.90;;;;;;5074408;28;20372;-67
2023/10/10 09:30:58;;;;;;;52.57;38.90;;;18.10;99.90;;;;;;5074769;28;20132;-67
2023/10/10 09:33:29;;;;;;;49.37;38.27;;;18.20;99.90;;;;;;5074705;28;20058;-69
2023/10/10 09:36:09;;;;;;;42.47;36.33;;;18.30;99.90;;;;;;5073643;28;20057;-68
2023/10/10 09:38:36;;;;;;;48.20;35.67;;;18.30;99.90;;;;;;5074057;28;20048;-68
2023/10/10 09:41:14;;;;;;;47.87;36.43;;;18.40;99.90;;;;;;5073963;28;20052;-68
2023/10/10 09:55:53;;;;;;;44.53;34.47;;;18.50;99.90;;;;;;5074432;28;20048;-68
2023/10/10 09:58:00;;;;;;;44.43;34.50;;;18.40;99.90;;;;;;5066413;28;20420;-68
2023/10/10 10:00:46;;;;;;;41.30;34.10;;;18.50;99.90;;;;;;5074331;28;20096;-68
2023/10/10 10:06:36;;;;;;;44.50;33.90;;;18.50;99.90;;;;;;5074010;28;20044;-67
2023/10/10 10:09:32;;;;;;;37.97;31.83;;;18.50;99.90;;;;;;5073742;28;20044;-67
2023/10/10 10:12:03;;;;;;;39.47;32.35;;;18.50;99.90;;;;;;5064574;28;20522;-68
2023/10/10 10:14:47;;;;;;;39.65;30.65;;;18.50;99.90;;;;;;5074378;28;20391;-68
2023/10/10 10:17:45;;;;;;;42.97;33.73;;;18.60;99.90;;;;;;5073539;28;20106;-68
2023/10/10 10:20:21;;;;;;;40.77;32.27;;;18.60;99.90;;;;;;5074147;28;20405;-68
2023/10/10 10:22:53;;;;;;;40.53;31.10;;;18.70;99.90;;;;;;5073283;28;20507;-68
2023/10/10 10:25:28;;;;;;;36.73;29.53;;;18.70;99.90;;;;;;5073337;28;20049;-68
2023/10/10 10:28:10;;;;;;;38.07;29.33;;;18.70;99.90;;;;;;5073972;28;20045;-68
2023/10/10 10:30:50;;;;;;;43.03;30.43;;;18.80;99.90;;;;;;5072280;28;20067;-68
2023/10/10 10:33:21;;;;;;;36.23;28.87;;;18.80;99.90;;;;;;5072689;28;20385;-68
2023/10/10 10:35:48;;;;;;;38.23;28.63;;;18.90;99.90;;;;;;5073715;28;20044;-68
2023/10/10 10:38:17;;;;;;;39.53;28.70;;;18.90;99.90;;;;;;5073205;28;20126;-68
2023/10/10 10:40:46;;;;;;;33.07;25.83;;;19.00;99.90;;;;;;5074824;28;20563;-68
2023/10/10 10:43:20;;;;;;;34.83;25.93;;;19.00;99.90;;;;;;5077637;28;20453;-68
2023/10/10 10:45:51;;;;;;;33.75;25.45;;;19.00;99.90;;;;;;5077486;28;20052;-68
2023/10/10 10:48:30;;;;;;;31.20;24.93;;;19.10;99.90;;;;;;5077391;28;20049;-68
2023/10/10 10:51:22;;;;;;;31.70;25.57;;;19.10;99.90;;;;;;5077426;28;20044;-68
2023/10/10 10:53:56;;;;;;;32.90;23.53;;;19.20;99.90;;;;;;5078154;28;20105;-68
2023/10/10 10:59:13;;;;;;;30.80;21.35;;;19.20;99.90;;;;;;5078000;28;20082;-68
2023/10/10 11:01:52;;;;;;;30.03;22.53;;;19.30;99.90;;;;;;5076341;28;20106;-68
2023/10/10 11:04:42;;;;;;;27.20;20.50;;;19.30;99.90;;;;;;5077544;28;20123;-69
2023/10/10 11:07:15;;;;;;;29.40;21.30;;;19.50;99.90;;;;;;5077802;28;20048;-68
2023/10/10 11:09:52;;;;;;;30.87;22.20;;;19.50;99.90;;;;;;5077024;28;20054;-68
2023/10/10 11:12:21;;;;;;;29.67;22.00;;;19.60;99.90;;;;;;5077550;28;20059;-68
2023/10/10 11:14:49;;;;;;;31.37;21.93;;;19.60;99.90;;;;;;5076858;28;20101;-68
2023/10/10 11:17:18;;;;;;;28.10;22.20;;;19.60;99.90;;;;;;5076329;28;20071;-67
2023/10/10 11:19:48;;;;;;;30.50;22.90;;;19.60;99.90;;;;;;5077567;28;20052;-68
2023/10/10 11:22:38;;;;;;;27.63;21.40;;;19.60;99.90;;;;;;5075477;28;20114;-68
2023/10/10 11:25:04;;;;;;;29.87;21.70;;;19.60;99.90;;;;;;5076022;28;20049;-68
2023/10/10 11:27:33;;;;;;;32.27;23.57;;;19.60;99.90;;;;;;5075714;28;20392;-67
2023/10/10 11:30:06;;;;;;;30.97;22.00;;;19.60;99.90;;;;;;5076628;28;20060;-68
2023/10/10 11:32:47;;;;;;;28.37;23.03;;;19.60;99.90;;;;;;5076200;28;20059;-67
2023/10/10 11:35:29;;;;;;;33.43;24.00;;;19.60;99.90;;;;;;5058784;28;20048;-69
2023/10/10 11:38:06;;;;;;;33.07;23.57;;;19.60;99.90;;;;;;5076460;28;20049;-68
2023/10/10 11:40:32;;;;;;;33.60;24.17;;;19.50;99.90;;;;;;5076360;28;20497;-68
2023/10/10 11:43:06;;;;;;;27.27;21.47;;;19.50;99.90;;;;;;5076620;28;20438;-68
2023/10/10 11:45:39;;;;;;;31.30;24.30;;;19.60;99.90;;;;;;5076165;28;20036;-68
2023/10/10 11:48:14;;;;;;;28.73;22.03;;;19.60;99.90;;;;;;5076314;28;20055;-69
2023/10/10 11:50:46;;;;;;;35.80;24.97;;;19.60;99.90;;;;;;5075807;28;20082;-68
2023/10/10 11:53:19;;;;;;;34.03;24.30;;;19.60;99.90;;;;;;5076151;28;20059;-68
2023/10/10 11:55:48;;;;;;;35.53;23.07;;;19.60;99.90;;;;;;5076718;28;20175;-69
2023/10/10 11:58:16;;;;;;;30.70;23.50;;;19.60;99.90;;;;;;5076358;28;20127;-68
2023/10/10 12:00:59;;;;;;;32.03;23.00;;;19.60;99.90;;;;;;5076577;28;20131;-68
2023/10/10 12:06:26;;;;;;;34.57;24.53;;;19.60;99.90;;;;;;5075986;28;20500;-68
2023/10/10 12:08:53;;;;;;;35.30;24.57;;;19.60;99.90;;;;;;5075941;28;20464;-68
2023/10/10 12:11:20;;;;;;;30.67;23.37;;;19.60;99.90;;;;;;5074593;28;20417;-70
2023/10/10 12:13:53;;;;;;;33.83;22.60;;;19.70;99.90;;;;;;5075589;28;20037;-69
2023/10/10 12:16:28;;;;;;;36.93;24.63;;;19.70;99.90;;;;;;5075597;28;20052;-66
2023/10/10 12:18:54;;;;;;;30.70;23.93;;;19.70;99.90;;;;;;5075739;28;20496;-66
2023/10/10 12:21:21;;;;;;;36.67;24.77;;;19.70;99.90;;;;;;5075923;28;20043;-66
2023/10/10 12:23:55;;;;;;;34.03;24.67;;;19.70;99.90;;;;;;5075519;28;20396;-65
2023/10/10 12:26:22;;;;;;;30.10;24.13;;;19.70;99.90;;;;;;5074844;28;20052;-66
2023/10/10 12:28:48;;;;;;;33.87;24.87;;;19.70;99.90;;;;;;5075269;28;20064;-66
2023/10/10 12:31:17;;;;;;;34.23;25.63;;;19.80;99.90;;;;;;5076033;28;20063;-66
2023/10/10 12:33:48;;;;;;;32.70;25.17;;;19.80;99.90;;;;;;5075348;28;20036;-64
2023/10/10 12:36:18;;;;;;;31.50;24.40;;;19.80;99.90;;;;;;5075456;28;20481;-64
2023/10/10 12:38:44;;;;;;;32.17;25.00;;;19.80;99.90;;;;;;5075266;28;20037;-64
2023/10/10 12:41:13;;;;;;;37.43;25.83;;;19.70;99.90;;;;;;5075235;28;20040;-66
2023/10/10 12:43:39;;;;;;;35.13;24.70;;;19.70;99.90;;;;;;5075905;28;20048;-67
2023/10/10 12:46:07;;;;;;;33.03;24.93;;;19.70;99.90;;;;;;5074883;28;20055;-65
2023/10/10 12:48:39;;;;;;;31.87;25.97;;;19.80;99.90;;;;;;5075078;28;20052;-65
2023/10/10 12:51:09;;;;;;;34.43;25.07;;;19.80;99.90;;;;;;5074832;28;20505;-65
2023/10/10 12:53:39;;;;;;;33.93;26.23;;;19.80;99.90;;;;;;5075570;28;20052;-65
2023/10/10 12:56:06;;;;;;;40.27;28.80;;;19.80;99.90;;;;;;5058060;28;20087;-65
2023/10/10 12:58:32;;;;;;;39.37;27.60;;;19.80;99.90;;;;;;5074889;28;20044;-66
2023/10/10 13:00:59;;;;;;;36.00;27.57;;;19.70;99.90;;;;;;5074465;28;20048;-67
2023/10/10 13:03:29;;;;;;;36.77;28.10;;;19.70;99.90;;;;;;5073783;28;20503;-67
2023/10/10 13:06:00;;;;;;;36.33;27.63;;;19.70;99.90;;;;;;5074761;28;20048;-67
2023/10/10 13:11:19;;;;;;;37.87;29.83;;;19.60;99.90;;;;;;5074364;28;20598;-67
2023/10/10 13:13:48;;;;;;;35.17;30.03;;;19.60;99.90;;;;;;5075308;28;20174;-66
2023/10/10 13:16:25;;;;;;;39.10;31.13;;;19.60;99.90;;;;;;5073824;28;20052;-67
2023/10/10 13:18:52;;;;;;;42.73;32.77;;;19.60;99.90;;;;;;5075049;28;20059;-65
2023/10/10 13:21:19;;;;;;;40.20;33.23;;;19.70;99.90;;;;;;5073278;28;20045;-64
2023/10/10 13:23:52;;;;;;;44.67;33.87;;;19.70;99.90;;;;;;5074256;28;20044;-65
2023/10/10 13:26:21;;;;;;;41.73;33.33;;;19.80;99.90;;;;;;5074422;28;20528;-65
2023/10/10 13:28:48;;;;;;;42.10;30.73;;;19.80;99.90;;;;;;5074016;28;20060;-65
2023/10/10 13:31:15;;;;;;;41.07;32.90;;;19.80;99.90;;;;;;5073634;28;20052;-65
2023/10/10 13:33:41;;;;;;;43.37;31.90;;;19.70;99.90;;;;;;5074204;28;20049;-65
2023/10/10 13:36:17;;;;;;;40.00;32.90;;;19.70;99.90;;;;;;5074398;28;20118;-65
2023/10/10 13:38:50;;;;;;;42.63;34.07;;;19.80;99.90;;;;;;5074105;28;20041;-65
2023/10/10 13:41:21;;;;;;;39.20;32.53;;;19.80;99.90;;;;;;5074939;28;20119;-64
2023/10/10 13:43:48;;;;;;;43.23;33.87;;;19.80;99.90;;;;;;5073904;28;20033;-64
2023/10/10 13:46:14;;;;;;;41.47;34.97;;;19.90;99.90;;;;;;5074504;28;20052;-66
2023/10/10 13:48:41;;;;;;;47.07;34.30;;;19.90;99.90;;;;;;5073848;28;20127;-65
2023/10/10 13:51:07;;;;;;;39.67;33.17;;;19.90;99.90;;;;;;5074373;28;20053;-65
2023/10/10 13:53:34;;;;;;;41.80;30.53;;;20.00;99.90;;;;;;5074367;28;20048;-65
2023/10/10 13:56:01;;;;;;;40.63;34.07;;;20.00;99.90;;;;;;5073550;28;20132;-64
2023/10/10 13:58:27;;;;;;;42.43;32.43;;;20.00;99.90;;;;;;5073831;28;20055;-64
2023/10/10 14:00:55;;;;;;;43.07;33.70;;;20.00;99.90;;;;;;5073970;28;20048;-65
2023/10/10 14:03:35;;;;;;;40.80;32.23;;;20.00;99.90;;;;;;5074260;28;20052;-65
2023/10/10 14:06:04;;;;;;;44.50;32.60;;;20.00;99.90;;;;;;5073699;28;20357;-65
2023/10/10 14:08:30;;;;;;;42.30;33.93;;;20.00;99.90;;;;;;5074034;28;20433;-65
2023/10/10 14:10:59;;;;;;;43.03;34.37;;;20.00;99.90;;;;;;5073678;28;20096;-65
2023/10/10 14:13:28;;;;;;;43.83;34.43;;;20.00;99.90;;;;;;5073316;28;20400;-63
2023/10/10 14:15:55;;;;;;;44.10;33.97;;;20.00;99.90;;;;;;5074184;28;20048;-65
2023/10/10 14:18:29;;;;;;;40.93;33.00;;;20.00;99.90;;;;;;5073578;28;20048;-69
2023/10/10 14:20:55;;;;;;;;;;;19.90;99.90;;;;;;5074639;28;20076;-69
2023/10/10 14:23:24;;;;;;;41.67;31.60;;;19.90;99.90;;;;;;5074062;28;19920;-67
2023/10/10 14:25:50;;;;;;;37.57;31.37;;;19.90;99.90;;;;;;5073371;28;20139;-68
2023/10/10 14:28:17;;;;;;;40.83;31.37;;;19.90;99.90;;;;;;5073463;28;20045;-68
2023/10/10 14:30:49;;;;;;;39.37;30.77;;;19.90;99.90;;;;;;5073260;28;20060;-67
2023/10/10 14:33:17;;;;;;;43.27;30.97;;;19.90;99.90;;;;;;5073246;28;20046;-67
2023/10/10 14:35:46;;;;;;;39.57;30.47;;;19.90;99.90;;;;;;5073379;28;20045;-67
2023/10/10 14:38:15;;;;;;;40.13;30.87;;;19.90;99.90;;;;;;5073422;28;20053;-67
2023/10/10 14:40:43;;;;;;;42.37;32.17;;;19.90;99.90;;;;;;5073295;28;20094;-67
2023/10/10 14:43:10;;;;;;;39.07;30.03;;;19.90;99.90;;;;;;5073808;28;20063;-67
2023/10/10 14:45:42;;;;;;;37.57;28.93;;;19.90;99.90;;;;;;5073213;28;20119;-68
2023/10/10 14:48:09;;;;;;;34.93;28.10;;;19.90;99.90;;;;;;5074115;28;20139;-67
2023/10/10 14:50:38;;;;;;;39.73;31.07;;;19.80;99.90;;;;;;5073330;28;20131;-68
2023/10/10 14:53:10;;;;;;;39.40;29.57;;;19.80;99.90;;;;;;5073210;28;20091;-68
2023/10/10 14:55:44;;;;;;;40.37;29.40;;;19.70;99.90;;;;;;5073219;28;20044;-68
2023/10/10 14:58:12;;;;;;;38.23;28.77;;;19.70;99.90;;;;;;5073529;28;20048;-67
2023/10/10 15:00:43;;;;;;;37.53;29.43;;;19.70;99.90;;;;;;5073839;28;20102;-68
2023/10/10 15:03:13;;;;;;;37.00;28.97;;;19.70;99.90;;;;;;5073924;28;20052;-67
2023/10/10 15:05:52;;;;;;;38.37;29.37;;;19.60;99.90;;;;;;5072338;28;20045;-68
2023/10/10 15:08:21;;;;;;;41.33;31.20;;;19.60;99.90;;;;;;5073921;28;20050;-68
2023/10/10 15:10:51;;;;;;;35.67;28.63;;;19.60;99.90;;;;;;5073310;28;20044;-70
2023/10/10 15:13:17;;;;;;;37.50;28.67;;;19.60;99.90;;;;;;5071722;28;20045;-67
2023/10/10 15:15:48;;;;;;;40.63;29.03;;;19.50;99.90;;;;;;5073024;28;20150;-68
2023/10/10 15:18:18;;;;;;;34.47;27.07;;;19.50;99.90;;;;;;5073595;28;20055;-67
2023/10/10 15:20:46;;;;;;;42.27;28.87;;;19.50;99.90;;;;;;5072976;28;20091;-67
2023/10/10 15:23:18;;;;;;;39.57;29.63;;;19.50;99.90;;;;;;5072985;28;20047;-67
2023/10/10 15:25:45;;;;;;;36.03;28.27;;;19.50;99.90;;;;;;5073437;28;20049;-67
2023/10/10 15:28:11;;;;;;;39.70;27.83;;;19.50;99.90;;;;;;5076609;28;20055;-67
2023/10/10 15:30:40;;;;;;;39.43;28.43;;;19.40;99.90;;;;;;5076586;28;20048;-67